NPV7542 LIPE-EGNX
Flight info
| Callsign | NPV7542 |
|---|---|
| Flight time | 2h 2m |
| Altitude | 36000 |
| Route | LUPOS DCT OSBUL DCT ABESI DCT UTAVO DCT HOC DCT LUL DCT RLP DCT ROTSI DCT KOTUN DCT NINAL DCT ABNUR DCT DIMAL DCT ALESO T420 HEMEL |
| Aircraft | B738/M-SDE2E3FGHIRWXY/LB1 |
Departure
| Time | 2026-05-04 17:42 |
|---|---|
| Airport | Bologna Guglielmo Marconi Airport (LIPE) |
Arrival
| Time | 2026-05-04 19:45 |
|---|---|
| Airport | East Midlands Airport (EGNX) |
| Time | Latitude | Longitude | Altitude | Speed | Heading |
|---|---|---|---|---|---|
| 2026-05-04 16:49 | 44.53407 | 11.28382 | 129 ft | 0 kts | 206° |
| 2026-05-04 17:32 | 44.53452 | 11.28399 | 129 ft | 4 kts | 165° |
| 2026-05-04 17:33 | 44.53471 | 11.28382 | 129 ft | 1 kts | 117° |
| 2026-05-04 17:37 | 44.53467 | 11.28409 | 129 ft | 5 kts | 86° |
| 2026-05-04 17:37 | 44.53502 | 11.28415 | 128 ft | 7 kts | 320° |
| 2026-05-04 17:37 | 44.53534 | 11.28347 | 131 ft | 10 kts | 298° |
| 2026-05-04 17:37 | 44.53569 | 11.28251 | 127 ft | 13 kts | 297° |
| 2026-05-04 17:38 | 44.53613 | 11.28128 | 129 ft | 16 kts | 296° |
| 2026-05-04 17:38 | 44.53666 | 11.27980 | 125 ft | 18 kts | 296° |
| 2026-05-04 17:38 | 44.53715 | 11.27826 | 128 ft | 15 kts | 300° |
| 2026-05-04 17:38 | 44.53764 | 11.27709 | 129 ft | 13 kts | 297° |
| 2026-05-04 17:39 | 44.53839 | 11.27499 | 125 ft | 9 kts | 297° |
| 2026-05-04 17:39 | 44.53855 | 11.27457 | 127 ft | 4 kts | 297° |
| 2026-05-04 17:39 | 44.53867 | 11.27422 | 129 ft | 4 kts | 296° |
| 2026-05-04 17:40 | 44.53885 | 11.27372 | 126 ft | 8 kts | 300° |
| 2026-05-04 17:40 | 44.53947 | 11.27298 | 129 ft | 14 kts | 325° |
| 2026-05-04 17:40 | 44.54020 | 11.27230 | 127 ft | 10 kts | 328° |
| 2026-05-04 17:40 | 44.54086 | 11.27228 | 123 ft | 10 kts | 27° |
| 2026-05-04 17:41 | 44.54103 | 11.27310 | 127 ft | 11 kts | 114° |
| 2026-05-04 17:41 | 44.54063 | 11.27424 | 127 ft | 22 kts | 116° |
| 2026-05-04 17:41 | 44.53887 | 11.27917 | 126 ft | 90 kts | 117° |
| 2026-05-04 17:41 | 44.53508 | 11.28959 | 127 ft | 147 kts | 118° |
| 2026-05-04 17:42 | 44.53037 | 11.30381 | 454 ft | 166 kts | 116° |
| 2026-05-04 17:42 | 44.52628 | 11.31915 | 1154 ft | 163 kts | 97° |
| 2026-05-04 17:42 | 44.52949 | 11.33402 | 1734 ft | 170 kts | 32° |
| 2026-05-04 17:42 | 44.54053 | 11.34070 | 2299 ft | 176 kts | 17° |
| 2026-05-04 17:43 | 44.55204 | 11.34720 | 2900 ft | 182 kts | 20° |
| 2026-05-04 17:43 | 44.56378 | 11.35463 | 3551 ft | 187 kts | 22° |
| 2026-05-04 17:43 | 44.57557 | 11.36272 | 4291 ft | 188 kts | 25° |
| 2026-05-04 17:43 | 44.58781 | 11.37167 | 4673 ft | 209 kts | 26° |
| 2026-05-04 17:44 | 44.60116 | 11.38195 | 4891 ft | 229 kts | 28° |
| 2026-05-04 17:44 | 44.61548 | 11.39334 | 4984 ft | 238 kts | 28° |
| 2026-05-04 17:44 | 44.62979 | 11.40483 | 4997 ft | 235 kts | 30° |
| 2026-05-04 17:44 | 44.64398 | 11.41626 | 4984 ft | 235 kts | 30° |
| 2026-05-04 17:45 | 44.65948 | 11.42432 | 5024 ft | 249 kts | 1° |
| 2026-05-04 17:45 | 44.67655 | 11.41844 | 5040 ft | 259 kts | 326° |
| 2026-05-04 17:45 | 44.68889 | 11.40054 | 5038 ft | 256 kts | 296° |
| 2026-05-04 17:45 | 44.69291 | 11.37659 | 5030 ft | 252 kts | 264° |
| 2026-05-04 17:46 | 44.68747 | 11.35382 | 5014 ft | 247 kts | 231° |
| 2026-05-04 17:46 | 44.67560 | 11.33664 | 5029 ft | 247 kts | 219° |
| 2026-05-04 17:46 | 44.66255 | 11.32120 | 5020 ft | 250 kts | 218° |
| 2026-05-04 17:46 | 44.64918 | 11.30551 | 5023 ft | 251 kts | 218° |
| 2026-05-04 17:47 | 44.63589 | 11.28972 | 5008 ft | 250 kts | 218° |
| 2026-05-04 17:47 | 44.62261 | 11.27386 | 5080 ft | 253 kts | 219° |
| 2026-05-04 17:47 | 44.60840 | 11.25798 | 5481 ft | 267 kts | 217° |
| 2026-05-04 17:47 | 44.59351 | 11.24208 | 6397 ft | 269 kts | 216° |
| 2026-05-04 17:48 | 44.57858 | 11.22616 | 7165 ft | 272 kts | 216° |
| 2026-05-04 17:48 | 44.56353 | 11.21001 | 7979 ft | 272 kts | 215° |
| 2026-05-04 17:48 | 44.54893 | 11.19310 | 8800 ft | 275 kts | 227° |
| 2026-05-04 17:48 | 44.54081 | 11.16875 | 9548 ft | 284 kts | 259° |
| 2026-05-04 17:49 | 44.54206 | 11.14083 | 10291 ft | 294 kts | 281° |
| 2026-05-04 17:49 | 44.54926 | 11.11310 | 10634 ft | 315 kts | 290° |
| 2026-05-04 17:49 | 44.55877 | 11.08417 | 10814 ft | 338 kts | 293° |
| 2026-05-04 17:49 | 44.56943 | 11.05377 | 11122 ft | 354 kts | 294° |
| 2026-05-04 17:50 | 44.58034 | 11.02259 | 11716 ft | 358 kts | 294° |
| 2026-05-04 17:50 | 44.59123 | 10.99119 | 12533 ft | 357 kts | 294° |
| 2026-05-04 17:50 | 44.60200 | 10.95969 | 13341 ft | 358 kts | 294° |
| 2026-05-04 17:50 | 44.61271 | 10.92804 | 14099 ft | 361 kts | 294° |
| 2026-05-04 17:51 | 44.62384 | 10.89627 | 14759 ft | 365 kts | 299° |
| 2026-05-04 17:51 | 44.63916 | 10.86751 | 15387 ft | 371 kts | 313° |
| 2026-05-04 17:51 | 44.65860 | 10.84351 | 16095 ft | 374 kts | 319° |
| 2026-05-04 17:51 | 44.67887 | 10.82034 | 16763 ft | 378 kts | 319° |
| 2026-05-04 17:52 | 44.69945 | 10.79688 | 17341 ft | 384 kts | 319° |
| 2026-05-04 17:52 | 44.72023 | 10.77310 | 18030 ft | 387 kts | 318° |
| 2026-05-04 17:52 | 44.74112 | 10.74914 | 18697 ft | 389 kts | 318° |
| 2026-05-04 17:52 | 44.76210 | 10.72489 | 19258 ft | 392 kts | 318° |
| 2026-05-04 17:53 | 44.78322 | 10.70036 | 19796 ft | 396 kts | 318° |
| 2026-05-04 17:53 | 44.80450 | 10.67555 | 20352 ft | 399 kts | 317° |
| 2026-05-04 17:53 | 44.82574 | 10.65075 | 20831 ft | 403 kts | 317° |
| 2026-05-04 17:53 | 44.84741 | 10.62543 | 21366 ft | 407 kts | 317° |
| 2026-05-04 17:54 | 44.86929 | 10.59984 | 21895 ft | 410 kts | 317° |
| 2026-05-04 17:54 | 44.89130 | 10.57405 | 22409 ft | 413 kts | 317° |
| 2026-05-04 17:54 | 44.91353 | 10.54798 | 22876 ft | 417 kts | 317° |
| 2026-05-04 17:54 | 44.93594 | 10.52168 | 23357 ft | 421 kts | 317° |
| 2026-05-04 17:55 | 44.95851 | 10.49519 | 23818 ft | 424 kts | 317° |
| 2026-05-04 17:55 | 44.98129 | 10.46842 | 24241 ft | 426 kts | 317° |
| 2026-05-04 17:55 | 45.00411 | 10.44157 | 24686 ft | 428 kts | 317° |
| 2026-05-04 17:55 | 45.02702 | 10.41457 | 25131 ft | 430 kts | 317° |
| 2026-05-04 17:56 | 45.05004 | 10.38742 | 25549 ft | 431 kts | 317° |
| 2026-05-04 17:56 | 45.07312 | 10.36014 | 25903 ft | 435 kts | 317° |
| 2026-05-04 17:56 | 45.09642 | 10.33259 | 26276 ft | 438 kts | 317° |
| 2026-05-04 17:56 | 45.11984 | 10.30489 | 26666 ft | 439 kts | 317° |
| 2026-05-04 17:57 | 45.14335 | 10.27705 | 27024 ft | 442 kts | 317° |
| 2026-05-04 17:57 | 45.15897 | 10.25854 | 27257 ft | 443 kts | 317° |
| 2026-05-04 17:57 | 45.18267 | 10.23041 | 27609 ft | 446 kts | 317° |
| 2026-05-04 17:57 | 45.20649 | 10.20211 | 27959 ft | 448 kts | 317° |
| 2026-05-04 17:58 | 45.23072 | 10.17328 | 28319 ft | 449 kts | 317° |
| 2026-05-04 17:58 | 45.25474 | 10.14468 | 28656 ft | 451 kts | 317° |
| 2026-05-04 17:58 | 45.27881 | 10.11598 | 28980 ft | 454 kts | 317° |
| 2026-05-04 17:58 | 45.30302 | 10.08708 | 29317 ft | 456 kts | 317° |
| 2026-05-04 17:59 | 45.32737 | 10.05798 | 29614 ft | 459 kts | 317° |
| 2026-05-04 17:59 | 45.35153 | 10.02906 | 29901 ft | 461 kts | 317° |
| 2026-05-04 17:59 | 45.40041 | 9.97054 | 30729 ft | 457 kts | 316° |
| 2026-05-04 18:00 | 45.42497 | 9.94101 | 31186 ft | 454 kts | 316° |
| 2026-05-04 18:00 | 45.44872 | 9.91245 | 31569 ft | 452 kts | 316° |
| 2026-05-04 18:00 | 45.47270 | 9.88361 | 31913 ft | 451 kts | 316° |
| 2026-05-04 18:00 | 45.49666 | 9.85473 | 32263 ft | 451 kts | 316° |
| 2026-05-04 18:01 | 45.52053 | 9.82594 | 32679 ft | 448 kts | 316° |
| 2026-05-04 18:01 | 45.54428 | 9.79728 | 33087 ft | 446 kts | 315° |
| 2026-05-04 18:01 | 45.56795 | 9.76866 | 33419 ft | 446 kts | 315° |
| 2026-05-04 18:02 | 45.61530 | 9.71125 | 34022 ft | 446 kts | 315° |
| 2026-05-04 18:02 | 45.63886 | 9.68269 | 34371 ft | 443 kts | 315° |
| 2026-05-04 18:02 | 45.66234 | 9.65420 | 34687 ft | 442 kts | 315° |
| 2026-05-04 18:02 | 45.68577 | 9.62572 | 34946 ft | 441 kts | 315° |
| 2026-05-04 18:03 | 45.70915 | 9.59727 | 35246 ft | 441 kts | 315° |
| 2026-05-04 18:03 | 45.73246 | 9.56885 | 35536 ft | 440 kts | 315° |
| 2026-05-04 18:03 | 45.75572 | 9.54047 | 35803 ft | 439 kts | 315° |
| 2026-05-04 18:03 | 45.77893 | 9.51211 | 36079 ft | 438 kts | 315° |
| 2026-05-04 18:04 | 45.82574 | 9.45479 | 36088 ft | 445 kts | 315° |
| 2026-05-04 18:05 | 45.89597 | 9.36871 | 36090 ft | 438 kts | 315° |
| 2026-05-04 18:05 | 45.94221 | 9.31185 | 36085 ft | 438 kts | 315° |
| 2026-05-04 18:06 | 46.01151 | 9.22633 | 36100 ft | 437 kts | 315° |
| 2026-05-04 18:06 | 46.05774 | 9.16922 | 36089 ft | 438 kts | 315° |
| 2026-05-04 18:07 | 46.10402 | 9.11191 | 36089 ft | 439 kts | 315° |
| 2026-05-04 18:07 | 46.15286 | 9.05904 | 36084 ft | 444 kts | 329° |
| 2026-05-04 18:08 | 46.21277 | 9.03363 | 36131 ft | 457 kts | 350° |
| 2026-05-04 18:08 | 46.27650 | 9.02630 | 36098 ft | 461 kts | 352° |
| 2026-05-04 18:09 | 46.40249 | 9.00147 | 36133 ft | 452 kts | 333° |
| 2026-05-04 18:10 | 46.45578 | 8.95557 | 36110 ft | 444 kts | 315° |
| 2026-05-04 18:10 | 46.50234 | 8.89684 | 36104 ft | 443 kts | 314° |
| 2026-05-04 18:11 | 46.54859 | 8.83772 | 36114 ft | 443 kts | 314° |
| 2026-05-04 18:11 | 46.59520 | 8.77885 | 36103 ft | 445 kts | 314° |
| 2026-05-04 18:12 | 46.64199 | 8.72023 | 36118 ft | 443 kts | 315° |
| 2026-05-04 18:12 | 46.68870 | 8.66167 | 36096 ft | 442 kts | 315° |
| 2026-05-04 18:13 | 46.73549 | 8.60311 | 36054 ft | 443 kts | 315° |
| 2026-05-04 18:14 | 46.80548 | 8.51465 | 36069 ft | 444 kts | 314° |
| 2026-05-04 18:14 | 46.85219 | 8.45553 | 36034 ft | 444 kts | 314° |
| 2026-05-04 18:15 | 46.94507 | 8.33755 | 35995 ft | 440 kts | 314° |
| 2026-05-04 18:16 | 46.99126 | 8.27874 | 35993 ft | 441 kts | 314° |
| 2026-05-04 18:16 | 47.03758 | 8.21960 | 36040 ft | 443 kts | 314° |
| 2026-05-04 18:17 | 47.10747 | 8.12997 | 36043 ft | 446 kts | 314° |
| 2026-05-04 18:18 | 47.17799 | 8.04007 | 36026 ft | 449 kts | 313° |
| 2026-05-04 18:18 | 47.22483 | 7.97921 | 36047 ft | 449 kts | 313° |
| 2026-05-04 18:19 | 47.29532 | 7.88796 | 36024 ft | 450 kts | 314° |
| 2026-05-04 18:19 | 47.34237 | 7.82699 | 36023 ft | 450 kts | 314° |
| 2026-05-04 18:20 | 47.38937 | 7.76600 | 36010 ft | 450 kts | 314° |
| 2026-05-04 18:20 | 47.43616 | 7.70462 | 36008 ft | 448 kts | 310° |
| 2026-05-04 18:21 | 47.45593 | 7.66982 | 35999 ft | 440 kts | 298° |
| 2026-05-04 18:21 | 47.47069 | 7.63063 | 36005 ft | 434 kts | 289° |
| 2026-05-04 18:21 | 47.48752 | 7.54607 | 36000 ft | 428 kts | 279° |
| 2026-05-04 18:22 | 47.50106 | 7.46041 | 36024 ft | 428 kts | 278° |
| 2026-05-04 18:22 | 47.51488 | 7.37463 | 36015 ft | 429 kts | 279° |
| 2026-05-04 18:23 | 47.52898 | 7.28873 | 36010 ft | 429 kts | 279° |
| 2026-05-04 18:23 | 47.54309 | 7.20294 | 36009 ft | 430 kts | 279° |
| 2026-05-04 18:24 | 47.55716 | 7.11703 | 36024 ft | 430 kts | 279° |
| 2026-05-04 18:24 | 47.57120 | 7.03089 | 36007 ft | 430 kts | 279° |
| 2026-05-04 18:25 | 47.58519 | 6.94464 | 35998 ft | 431 kts | 279° |
| 2026-05-04 18:25 | 47.59908 | 6.85835 | 36003 ft | 431 kts | 279° |
| 2026-05-04 18:26 | 47.61286 | 6.77246 | 35997 ft | 431 kts | 278° |
| 2026-05-04 18:26 | 47.62664 | 6.68602 | 36009 ft | 431 kts | 278° |
| 2026-05-04 18:27 | 47.64040 | 6.59946 | 36012 ft | 432 kts | 278° |
| 2026-05-04 18:27 | 47.65413 | 6.51273 | 36003 ft | 432 kts | 278° |
| 2026-05-04 18:28 | 47.66782 | 6.42581 | 35996 ft | 433 kts | 278° |
| 2026-05-04 18:28 | 47.68144 | 6.33880 | 35999 ft | 433 kts | 278° |
| 2026-05-04 18:29 | 47.69659 | 6.25207 | 36007 ft | 436 kts | 282° |
| 2026-05-04 18:29 | 47.71496 | 6.16616 | 35997 ft | 437 kts | 283° |
| 2026-05-04 18:30 | 47.74280 | 6.03719 | 36003 ft | 437 kts | 283° |
| 2026-05-04 18:31 | 47.76103 | 5.95112 | 35998 ft | 437 kts | 282° |
| 2026-05-04 18:31 | 47.77914 | 5.86484 | 36015 ft | 437 kts | 282° |
| 2026-05-04 18:32 | 47.79715 | 5.77855 | 36014 ft | 437 kts | 282° |
| 2026-05-04 18:32 | 47.81512 | 5.69217 | 36004 ft | 437 kts | 282° |
| 2026-05-04 18:33 | 47.83304 | 5.60577 | 36001 ft | 437 kts | 282° |
| 2026-05-04 18:33 | 47.85087 | 5.51938 | 35994 ft | 437 kts | 282° |
| 2026-05-04 18:34 | 47.86867 | 5.43292 | 36005 ft | 437 kts | 282° |
| 2026-05-04 18:34 | 47.88646 | 5.34621 | 35989 ft | 438 kts | 282° |
| 2026-05-04 18:35 | 47.90716 | 5.26051 | 35992 ft | 444 kts | 293° |
| 2026-05-04 18:35 | 47.94308 | 5.18535 | 35970 ft | 453 kts | 307° |
| 2026-05-04 18:36 | 47.98579 | 5.11610 | 35985 ft | 454 kts | 308° |
| 2026-05-04 18:36 | 48.02871 | 5.04658 | 35978 ft | 455 kts | 307° |
| 2026-05-04 18:37 | 48.07128 | 4.97652 | 35970 ft | 456 kts | 307° |
| 2026-05-04 18:37 | 48.11373 | 4.90611 | 35955 ft | 455 kts | 307° |
| 2026-05-04 18:38 | 48.15609 | 4.83557 | 35958 ft | 456 kts | 307° |
| 2026-05-04 18:38 | 48.19843 | 4.76495 | 35947 ft | 455 kts | 307° |
| 2026-05-04 18:39 | 48.23358 | 4.70628 | 35973 ft | 455 kts | 307° |
| 2026-05-04 18:39 | 48.28284 | 4.62372 | 35958 ft | 454 kts | 307° |
| 2026-05-04 18:40 | 48.32486 | 4.55281 | 35943 ft | 454 kts | 307° |
| 2026-05-04 18:40 | 48.36683 | 4.48180 | 35947 ft | 454 kts | 306° |
| 2026-05-04 18:41 | 48.40876 | 4.41082 | 35943 ft | 453 kts | 306° |
| 2026-05-04 18:41 | 48.45057 | 4.33991 | 35939 ft | 453 kts | 306° |
| 2026-05-04 18:42 | 48.48528 | 4.28091 | 35954 ft | 453 kts | 307° |
| 2026-05-04 18:42 | 48.53383 | 4.19815 | 35942 ft | 453 kts | 307° |
| 2026-05-04 18:43 | 48.57555 | 4.12689 | 35939 ft | 453 kts | 306° |
| 2026-05-04 18:43 | 48.61724 | 4.05545 | 35941 ft | 453 kts | 306° |
| 2026-05-04 18:44 | 48.65891 | 3.98387 | 35942 ft | 454 kts | 306° |
| 2026-05-04 18:44 | 48.70066 | 3.91204 | 35941 ft | 454 kts | 306° |
| 2026-05-04 18:45 | 48.73568 | 3.85297 | 35939 ft | 456 kts | 309° |
| 2026-05-04 18:45 | 48.78073 | 3.78514 | 35937 ft | 457 kts | 311° |
| 2026-05-04 18:46 | 48.82644 | 3.71813 | 35941 ft | 457 kts | 311° |
| 2026-05-04 18:46 | 48.87197 | 3.65079 | 35937 ft | 457 kts | 310° |
| 2026-05-04 18:47 | 48.91733 | 3.58304 | 35932 ft | 457 kts | 310° |
| 2026-05-04 18:47 | 48.96256 | 3.51511 | 35935 ft | 457 kts | 310° |
| 2026-05-04 18:48 | 49.00555 | 3.45037 | 35943 ft | 457 kts | 310° |
| 2026-05-04 18:48 | 49.05067 | 3.38224 | 35940 ft | 456 kts | 310° |
| 2026-05-04 18:49 | 49.09574 | 3.31400 | 35934 ft | 456 kts | 310° |
| 2026-05-04 18:49 | 49.14070 | 3.24583 | 35931 ft | 455 kts | 310° |
| 2026-05-04 18:50 | 49.18556 | 3.17767 | 35928 ft | 454 kts | 310° |
| 2026-05-04 18:50 | 49.22998 | 3.10984 | 35938 ft | 454 kts | 310° |
| 2026-05-04 18:51 | 49.27464 | 3.04150 | 35940 ft | 454 kts | 310° |
| 2026-05-04 18:51 | 49.31920 | 2.97316 | 35928 ft | 453 kts | 310° |
| 2026-05-04 18:52 | 49.36373 | 2.90471 | 35930 ft | 453 kts | 310° |
| 2026-05-04 18:52 | 49.40814 | 2.83624 | 35932 ft | 452 kts | 310° |
| 2026-05-04 18:53 | 49.45251 | 2.76765 | 35932 ft | 452 kts | 310° |
| 2026-05-04 18:53 | 49.49688 | 2.69889 | 35942 ft | 453 kts | 310° |
| 2026-05-04 18:54 | 49.54130 | 2.62995 | 35944 ft | 454 kts | 311° |
| 2026-05-04 18:54 | 49.58566 | 2.56084 | 35933 ft | 454 kts | 311° |
| 2026-05-04 18:55 | 49.63256 | 2.49554 | 35963 ft | 456 kts | 319° |
| 2026-05-04 18:55 | 49.70895 | 2.40745 | 35938 ft | 457 kts | 320° |
| 2026-05-04 18:56 | 49.76068 | 2.34745 | 35934 ft | 457 kts | 319° |
| 2026-05-04 18:56 | 49.81040 | 2.28892 | 35937 ft | 457 kts | 319° |
| 2026-05-04 18:57 | 49.86095 | 2.22910 | 35941 ft | 458 kts | 319° |
| 2026-05-04 18:57 | 49.91153 | 2.16909 | 35939 ft | 458 kts | 319° |
| 2026-05-04 18:58 | 49.96203 | 2.10900 | 35939 ft | 457 kts | 319° |
| 2026-05-04 18:58 | 50.01254 | 2.04880 | 35941 ft | 457 kts | 319° |
| 2026-05-04 18:59 | 50.06296 | 1.98855 | 35940 ft | 457 kts | 319° |
| 2026-05-04 18:59 | 50.11334 | 1.92822 | 35945 ft | 457 kts | 319° |
| 2026-05-04 19:00 | 50.16369 | 1.86769 | 35952 ft | 457 kts | 319° |
| 2026-05-04 19:00 | 50.21049 | 1.80118 | 35963 ft | 455 kts | 312° |
| 2026-05-04 19:01 | 50.25534 | 1.73131 | 35971 ft | 456 kts | 312° |
| 2026-05-04 19:01 | 50.30042 | 1.66155 | 35968 ft | 456 kts | 312° |
| 2026-05-04 19:02 | 50.34562 | 1.59224 | 35975 ft | 455 kts | 312° |
| 2026-05-04 19:02 | 50.39085 | 1.52286 | 35987 ft | 455 kts | 312° |
| 2026-05-04 19:03 | 50.43604 | 1.45341 | 35993 ft | 455 kts | 313° |
| 2026-05-04 19:03 | 50.48117 | 1.38380 | 35995 ft | 455 kts | 312° |
| 2026-05-04 19:04 | 50.52522 | 1.31230 | 35993 ft | 455 kts | 309° |
| 2026-05-04 19:04 | 50.56777 | 1.23854 | 35976 ft | 455 kts | 309° |
| 2026-05-04 19:05 | 50.61138 | 1.16707 | 35985 ft | 456 kts | 312° |
| 2026-05-04 19:05 | 50.65623 | 1.09704 | 35998 ft | 456 kts | 312° |
| 2026-05-04 19:06 | 50.70128 | 1.02632 | 36014 ft | 456 kts | 312° |
| 2026-05-04 19:06 | 50.74594 | 0.95551 | 36001 ft | 455 kts | 312° |
| 2026-05-04 19:07 | 50.79062 | 0.88436 | 35997 ft | 455 kts | 311° |
| 2026-05-04 19:07 | 50.83509 | 0.81339 | 35998 ft | 454 kts | 311° |
| 2026-05-04 19:08 | 50.87949 | 0.74221 | 36003 ft | 454 kts | 312° |
| 2026-05-04 19:08 | 50.92375 | 0.67107 | 35999 ft | 453 kts | 311° |
| 2026-05-04 19:09 | 50.96799 | 0.59976 | 36002 ft | 453 kts | 311° |
| 2026-05-04 19:09 | 51.01215 | 0.52832 | 35998 ft | 453 kts | 311° |
| 2026-05-04 19:10 | 51.05628 | 0.45680 | 36004 ft | 453 kts | 311° |
| 2026-05-04 19:10 | 51.10106 | 0.38610 | 36000 ft | 454 kts | 313° |
| 2026-05-04 19:11 | 51.12398 | 0.35136 | 35882 ft | 456 kts | 314° |
| 2026-05-04 19:11 | 51.14717 | 0.31630 | 35312 ft | 462 kts | 314° |
| 2026-05-04 19:11 | 51.17041 | 0.28107 | 34728 ft | 460 kts | 314° |
| 2026-05-04 19:11 | 51.19348 | 0.24594 | 34101 ft | 460 kts | 313° |
| 2026-05-04 19:12 | 51.21664 | 0.21052 | 33338 ft | 461 kts | 313° |
| 2026-05-04 19:12 | 51.26272 | 0.13979 | 32212 ft | 455 kts | 313° |
| 2026-05-04 19:12 | 51.28542 | 0.10485 | 31726 ft | 451 kts | 313° |
| 2026-05-04 19:13 | 51.30780 | 0.07029 | 31243 ft | 447 kts | 313° |
| 2026-05-04 19:13 | 51.33055 | 0.03669 | 30790 ft | 445 kts | 317° |
| 2026-05-04 19:13 | 51.35573 | 0.00879 | 30284 ft | 446 kts | 326° |
| 2026-05-04 19:13 | 51.38234 | -0.01624 | 29793 ft | 442 kts | 327° |
| 2026-05-04 19:14 | 51.40921 | -0.04101 | 29261 ft | 439 kts | 327° |
| 2026-05-04 19:14 | 51.43551 | -0.06533 | 28793 ft | 433 kts | 327° |
| 2026-05-04 19:14 | 51.46138 | -0.08950 | 28320 ft | 428 kts | 327° |
| 2026-05-04 19:14 | 51.48690 | -0.11358 | 27865 ft | 424 kts | 327° |
| 2026-05-04 19:15 | 51.51190 | -0.13734 | 27402 ft | 420 kts | 327° |
| 2026-05-04 19:15 | 51.53722 | -0.16149 | 26950 ft | 416 kts | 327° |
| 2026-05-04 19:15 | 51.56198 | -0.18515 | 26503 ft | 413 kts | 327° |
| 2026-05-04 19:15 | 51.58627 | -0.20837 | 26088 ft | 410 kts | 327° |
| 2026-05-04 19:16 | 51.61070 | -0.23172 | 25643 ft | 407 kts | 327° |
| 2026-05-04 19:16 | 51.63493 | -0.25494 | 25213 ft | 404 kts | 327° |
| 2026-05-04 19:16 | 51.65923 | -0.27832 | 24775 ft | 401 kts | 327° |
| 2026-05-04 19:16 | 51.68283 | -0.30103 | 24347 ft | 398 kts | 327° |
| 2026-05-04 19:17 | 51.70651 | -0.32388 | 23918 ft | 396 kts | 327° |
| 2026-05-04 19:17 | 51.73015 | -0.34668 | 23440 ft | 395 kts | 327° |
| 2026-05-04 19:17 | 51.75362 | -0.36931 | 22954 ft | 392 kts | 327° |
| 2026-05-04 19:17 | 51.77722 | -0.39212 | 22473 ft | 389 kts | 327° |
| 2026-05-04 19:18 | 51.79990 | -0.41409 | 22314 ft | 379 kts | 327° |
| 2026-05-04 19:18 | 51.82224 | -0.43577 | 22306 ft | 376 kts | 326° |
| 2026-05-04 19:18 | 51.84498 | -0.45793 | 22312 ft | 386 kts | 326° |
| 2026-05-04 19:18 | 51.86819 | -0.48057 | 22300 ft | 391 kts | 326° |
| 2026-05-04 19:19 | 51.89141 | -0.50319 | 22275 ft | 389 kts | 326° |
| 2026-05-04 19:19 | 51.91452 | -0.52570 | 22153 ft | 386 kts | 326° |
| 2026-05-04 19:19 | 51.93760 | -0.54822 | 21430 ft | 391 kts | 326° |
| 2026-05-04 19:19 | 51.96128 | -0.57135 | 20438 ft | 402 kts | 327° |
| 2026-05-04 19:20 | 51.98550 | -0.59499 | 19529 ft | 409 kts | 327° |
| 2026-05-04 19:20 | 52.00988 | -0.61878 | 18946 ft | 408 kts | 327° |
| 2026-05-04 19:20 | 52.03387 | -0.64221 | 18591 ft | 399 kts | 327° |
| 2026-05-04 19:20 | 52.05749 | -0.66534 | 18226 ft | 392 kts | 327° |
| 2026-05-04 19:21 | 52.08057 | -0.68800 | 17832 ft | 384 kts | 327° |
| 2026-05-04 19:21 | 52.10350 | -0.71055 | 17470 ft | 377 kts | 327° |
| 2026-05-04 19:21 | 52.12547 | -0.73217 | 17135 ft | 370 kts | 327° |
| 2026-05-04 19:21 | 52.14747 | -0.75385 | 16806 ft | 362 kts | 327° |
| 2026-05-04 19:22 | 52.16857 | -0.77465 | 16494 ft | 356 kts | 327° |
| 2026-05-04 19:22 | 52.18987 | -0.79566 | 16180 ft | 351 kts | 327° |
| 2026-05-04 19:22 | 52.21072 | -0.81627 | 15874 ft | 349 kts | 326° |
| 2026-05-04 19:22 | 52.23139 | -0.83675 | 15577 ft | 347 kts | 327° |
| 2026-05-04 19:23 | 52.25191 | -0.85710 | 15275 ft | 344 kts | 327° |
| 2026-05-04 19:23 | 52.27236 | -0.87735 | 14963 ft | 342 kts | 326° |
| 2026-05-04 19:23 | 52.29263 | -0.89744 | 14666 ft | 340 kts | 327° |
| 2026-05-04 19:23 | 52.31287 | -0.91749 | 14363 ft | 338 kts | 327° |
| 2026-05-04 19:24 | 52.33295 | -0.93739 | 14057 ft | 336 kts | 327° |
| 2026-05-04 19:24 | 52.35290 | -0.95717 | 13758 ft | 334 kts | 327° |
| 2026-05-04 19:24 | 52.37260 | -0.97676 | 13428 ft | 329 kts | 327° |
| 2026-05-04 19:24 | 52.39181 | -0.99566 | 13130 ft | 324 kts | 331° |
| 2026-05-04 19:25 | 52.41348 | -1.00634 | 12840 ft | 321 kts | 354° |
| 2026-05-04 19:25 | 52.43528 | -1.00407 | 12559 ft | 318 kts | 11° |
| 2026-05-04 19:25 | 52.45680 | -0.99503 | 12285 ft | 314 kts | 14° |
| 2026-05-04 19:25 | 52.47744 | -0.98542 | 11994 ft | 310 kts | 14° |
| 2026-05-04 19:26 | 52.49807 | -0.97580 | 11716 ft | 306 kts | 13° |
| 2026-05-04 19:26 | 52.51874 | -0.96641 | 11438 ft | 302 kts | 13° |
| 2026-05-04 19:26 | 52.53889 | -0.95744 | 11175 ft | 299 kts | 13° |
| 2026-05-04 19:26 | 52.55888 | -0.94864 | 10910 ft | 296 kts | 13° |
| 2026-05-04 19:27 | 52.57860 | -0.94015 | 10640 ft | 287 kts | 8° |
| 2026-05-04 19:27 | 52.59770 | -0.94219 | 10362 ft | 272 kts | 333° |
| 2026-05-04 19:27 | 52.61138 | -0.96139 | 10147 ft | 256 kts | 298° |
| 2026-05-04 19:27 | 52.61715 | -0.98780 | 9947 ft | 245 kts | 275° |
| 2026-05-04 19:28 | 52.61544 | -1.01535 | 9720 ft | 244 kts | 249° |
| 2026-05-04 19:28 | 52.60602 | -1.03882 | 9495 ft | 246 kts | 222° |
| 2026-05-04 19:28 | 52.59150 | -1.05296 | 9264 ft | 249 kts | 197° |
| 2026-05-04 19:28 | 52.57415 | -1.05774 | 9036 ft | 252 kts | 186° |
| 2026-05-04 19:29 | 52.55659 | -1.06007 | 8790 ft | 254 kts | 185° |
| 2026-05-04 19:29 | 52.54490 | -1.06153 | 8640 ft | 254 kts | 185° |
| 2026-05-04 19:29 | 52.52731 | -1.06387 | 8404 ft | 253 kts | 186° |
| 2026-05-04 19:29 | 52.50427 | -1.06710 | 8118 ft | 249 kts | 186° |
| 2026-05-04 19:30 | 52.49269 | -1.06868 | 8050 ft | 247 kts | 182° |
| 2026-05-04 19:30 | 52.47607 | -1.06289 | 8009 ft | 248 kts | 149° |
| 2026-05-04 19:30 | 52.46192 | -1.03452 | 8024 ft | 250 kts | 107° |
| 2026-05-04 19:30 | 52.46005 | -1.01554 | 8027 ft | 252 kts | 86° |
| 2026-05-04 19:31 | 52.46488 | -0.98809 | 8022 ft | 254 kts | 55° |
| 2026-05-04 19:31 | 52.47772 | -0.96888 | 8011 ft | 251 kts | 21° |
| 2026-05-04 19:31 | 52.49449 | -0.96255 | 8016 ft | 248 kts | 355° |
| 2026-05-04 19:31 | 52.51106 | -0.96883 | 8029 ft | 245 kts | 339° |
| 2026-05-04 19:32 | 52.52743 | -0.97742 | 8016 ft | 247 kts | 340° |
| 2026-05-04 19:32 | 52.54383 | -0.98582 | 8013 ft | 247 kts | 340° |
| 2026-05-04 19:32 | 52.56034 | -0.99406 | 8007 ft | 248 kts | 341° |
| 2026-05-04 19:32 | 52.57679 | -1.00217 | 8005 ft | 248 kts | 341° |
| 2026-05-04 19:33 | 52.59315 | -1.01102 | 7999 ft | 245 kts | 330° |
| 2026-05-04 19:33 | 52.60563 | -1.02896 | 7895 ft | 237 kts | 300° |
| 2026-05-04 19:33 | 52.61132 | -1.05452 | 7460 ft | 244 kts | 281° |
| 2026-05-04 19:33 | 52.61440 | -1.08219 | 6849 ft | 252 kts | 278° |
| 2026-05-04 19:34 | 52.61729 | -1.11124 | 6146 ft | 262 kts | 278° |
| 2026-05-04 19:34 | 52.62008 | -1.14095 | 5591 ft | 263 kts | 278° |
| 2026-05-04 19:34 | 52.62274 | -1.17065 | 5124 ft | 261 kts | 278° |
| 2026-05-04 19:34 | 52.62526 | -1.20005 | 4733 ft | 255 kts | 278° |
| 2026-05-04 19:35 | 52.62757 | -1.22782 | 4746 ft | 238 kts | 278° |
| 2026-05-04 19:35 | 52.62974 | -1.25431 | 4715 ft | 231 kts | 277° |
| 2026-05-04 19:35 | 52.62962 | -1.28076 | 4559 ft | 232 kts | 263° |
| 2026-05-04 19:35 | 52.62772 | -1.30690 | 4467 ft | 228 kts | 264° |
| 2026-05-04 19:36 | 52.62590 | -1.33271 | 4393 ft | 226 kts | 264° |
| 2026-05-04 19:36 | 52.62409 | -1.35848 | 4317 ft | 227 kts | 264° |
| 2026-05-04 19:36 | 52.62228 | -1.38424 | 4246 ft | 227 kts | 264° |
| 2026-05-04 19:36 | 52.62047 | -1.41002 | 4190 ft | 226 kts | 264° |
| 2026-05-04 19:37 | 52.61867 | -1.43558 | 4186 ft | 224 kts | 264° |
| 2026-05-04 19:37 | 52.61688 | -1.46098 | 4181 ft | 223 kts | 264° |
| 2026-05-04 19:37 | 52.61506 | -1.48652 | 4099 ft | 228 kts | 264° |
| 2026-05-04 19:37 | 52.61420 | -1.51241 | 4073 ft | 227 kts | 280° |
| 2026-05-04 19:38 | 52.62005 | -1.53607 | 4051 ft | 225 kts | 301° |
| 2026-05-04 19:38 | 52.62968 | -1.55648 | 3891 ft | 228 kts | 325° |
| 2026-05-04 19:38 | 52.64435 | -1.56377 | 3821 ft | 222 kts | 358° |
| 2026-05-04 19:38 | 52.65993 | -1.56359 | 3706 ft | 225 kts | 359° |
| 2026-05-04 19:39 | 52.67561 | -1.56367 | 3563 ft | 225 kts | 358° |
| 2026-05-04 19:39 | 52.69117 | -1.56400 | 3416 ft | 222 kts | 358° |
| 2026-05-04 19:39 | 52.70654 | -1.56456 | 3279 ft | 220 kts | 357° |
| 2026-05-04 19:39 | 52.72181 | -1.56531 | 3156 ft | 220 kts | 357° |
| 2026-05-04 19:40 | 52.73716 | -1.56619 | 3054 ft | 221 kts | 356° |
| 2026-05-04 19:40 | 52.75253 | -1.56715 | 2928 ft | 221 kts | 356° |
| 2026-05-04 19:40 | 52.76778 | -1.56816 | 2798 ft | 218 kts | 356° |
| 2026-05-04 19:40 | 52.78275 | -1.56922 | 2652 ft | 212 kts | 356° |
| 2026-05-04 19:41 | 52.79717 | -1.57025 | 2572 ft | 202 kts | 356° |
| 2026-05-04 19:41 | 52.81080 | -1.57070 | 2425 ft | 192 kts | 6° |
| 2026-05-04 19:41 | 52.82220 | -1.56074 | 2275 ft | 190 kts | 50° |
| 2026-05-04 19:41 | 52.82686 | -1.54045 | 2262 ft | 192 kts | 82° |
| 2026-05-04 19:42 | 52.82754 | -1.51897 | 2237 ft | 183 kts | 83° |
| 2026-05-04 19:42 | 52.82809 | -1.49837 | 2142 ft | 177 kts | 86° |
| 2026-05-04 19:42 | 52.82844 | -1.47817 | 1925 ft | 175 kts | 86° |
| 2026-05-04 19:42 | 52.82876 | -1.45818 | 1689 ft | 173 kts | 86° |
| 2026-05-04 19:43 | 52.82908 | -1.43861 | 1455 ft | 165 kts | 85° |
| 2026-05-04 19:43 | 52.82939 | -1.42042 | 1268 ft | 154 kts | 85° |
| 2026-05-04 19:43 | 52.82969 | -1.40298 | 1023 ft | 149 kts | 86° |
| 2026-05-04 19:43 | 52.83025 | -1.38619 | 810 ft | 145 kts | 84° |
| 2026-05-04 19:44 | 52.83062 | -1.36970 | 639 ft | 146 kts | 88° |
| 2026-05-04 19:44 | 52.83061 | -1.35270 | 394 ft | 149 kts | 85° |
| 2026-05-04 19:44 | 52.83096 | -1.33615 | 310 ft | 135 kts | 86° |
| 2026-05-04 19:44 | 52.83108 | -1.32338 | 301 ft | 81 kts | 88° |
| 2026-05-04 19:45 | 52.83120 | -1.31810 | 310 ft | 32 kts | 88° |
| 2026-05-04 19:45 | 52.83124 | -1.31446 | 306 ft | 31 kts | 89° |
| 2026-05-04 19:45 | 52.83095 | -1.31329 | 304 ft | 9 kts | 156° |
| 2026-05-04 19:45 | 52.83024 | -1.31316 | 302 ft | 0 kts | 177° |
| 2026-05-04 19:47 | 52.83003 | -1.31315 | 300 ft | 8 kts | 181° |
| 2026-05-04 19:48 | 52.82961 | -1.31377 | 303 ft | 6 kts | 252° |
| 2026-05-04 19:48 | 52.82958 | -1.31401 | 300 ft | 0 kts | 262° |
| 2026-05-04 19:51 | 52.82957 | -1.31417 | 300 ft | 4 kts | 262° |
| 2026-05-04 19:51 | 52.82954 | -1.31496 | 300 ft | 9 kts | 267° |
| 2026-05-04 19:51 | 52.82953 | -1.31599 | 301 ft | 9 kts | 268° |
| 2026-05-04 19:51 | 52.82949 | -1.31699 | 300 ft | 9 kts | 263° |
| 2026-05-04 19:52 | 52.82950 | -1.31797 | 301 ft | 8 kts | 269° |
| 2026-05-04 19:52 | 52.82947 | -1.31892 | 302 ft | 8 kts | 268° |
| 2026-05-04 19:52 | 52.82946 | -1.31989 | 301 ft | 10 kts | 267° |
| 2026-05-04 19:52 | 52.82944 | -1.32122 | 300 ft | 14 kts | 269° |
| 2026-05-04 19:53 | 52.82942 | -1.32240 | 300 ft | 8 kts | 268° |
| 2026-05-04 19:53 | 52.82941 | -1.32314 | 300 ft | 0 kts | 269° |
| 2026-05-04 19:54 | 52.82940 | -1.32334 | 300 ft | 4 kts | 267° |
| 2026-05-04 19:54 | 52.82938 | -1.32424 | 300 ft | 11 kts | 268° |
| 2026-05-04 19:54 | 52.82935 | -1.32595 | 300 ft | 17 kts | 268° |
| 2026-05-04 19:54 | 52.82931 | -1.32794 | 303 ft | 17 kts | 268° |
| 2026-05-04 19:55 | 52.82928 | -1.32986 | 301 ft | 16 kts | 267° |
| 2026-05-04 19:55 | 52.82925 | -1.33170 | 302 ft | 16 kts | 268° |
| 2026-05-04 19:55 | 52.82922 | -1.33348 | 304 ft | 15 kts | 268° |
| 2026-05-04 19:55 | 52.82918 | -1.33519 | 306 ft | 15 kts | 268° |
| 2026-05-04 19:56 | 52.82915 | -1.33695 | 304 ft | 16 kts | 268° |
| 2026-05-04 19:56 | 52.82912 | -1.33885 | 304 ft | 18 kts | 269° |
| 2026-05-04 19:56 | 52.82907 | -1.34103 | 301 ft | 20 kts | 267° |
| 2026-05-04 19:56 | 52.82908 | -1.34271 | 303 ft | 11 kts | 272° |
| 2026-05-04 19:57 | 52.82903 | -1.34384 | 305 ft | 8 kts | 243° |
| 2026-05-04 19:57 | 52.82848 | -1.34432 | 300 ft | 11 kts | 212° |
| 2026-05-04 19:57 | 52.82832 | -1.34546 | 301 ft | 8 kts | 271° |
| 2026-05-04 19:57 | 52.82831 | -1.34639 | 301 ft | 7 kts | 268° |
| 2026-05-04 19:58 | 52.82830 | -1.34706 | 299 ft | 5 kts | 269° |
| 2026-05-04 19:58 | 52.82829 | -1.34768 | 299 ft | 5 kts | 268° |
| 2026-05-04 19:58 | 52.82827 | -1.34828 | 299 ft | 5 kts | 268° |
| 2026-05-04 19:58 | 52.82826 | -1.34893 | 301 ft | 6 kts | 268° |
| 2026-05-04 19:59 | 52.82825 | -1.34971 | 300 ft | 7 kts | 267° |
| 2026-05-04 19:59 | 52.82823 | -1.35008 | 299 ft | 1 kts | 265° |
| 2026-05-04 19:59 | 52.82817 | -1.35025 | 299 ft | 3 kts | 229° |
| 2026-05-04 19:59 | 52.82788 | -1.35039 | 299 ft | 5 kts | 181° |
| 2026-05-04 20:00 | 52.82773 | -1.35038 | 302 ft | 2 kts | 177° |
| 2026-05-04 20:00 | 52.82760 | -1.35037 | 299 ft | 2 kts | 178° |
| 2026-05-04 20:00 | 52.82747 | -1.35036 | 299 ft | 2 kts | 178° |
| 2026-05-04 20:00 | 52.82742 | -1.35036 | 299 ft | 0 kts | 179° |